sensor_id;sensor_type;location;lat;lon;timestamp;pressure;altitude;pressure_sealevel;temperature;humidity
69911;BME280;63555;49.920;17.868;2023-02-18T00:04:04;98498.81;;;9.02;77.31
69911;BME280;63555;49.920;17.868;2023-02-18T00:09:05;98510.09;;;8.91;77.31
69911;BME280;63555;49.920;17.868;2023-02-18T00:14:12;98501.88;;;8.72;77.26
69911;BME280;63555;49.920;17.868;2023-02-18T00:19:16;98515.88;;;8.73;77.44
69911;BME280;63555;49.920;17.868;2023-02-18T00:24:16;98511.19;;;8.89;76.85
69911;BME280;63555;49.920;17.868;2023-02-18T00:29:17;98527.41;;;9.07;76.42
69911;BME280;63555;49.920;17.868;2023-02-18T00:34:18;98519.38;;;9.32;75.35
69911;BME280;63555;49.920;17.868;2023-02-18T00:39:18;98520.84;;;9.47;74.23
69911;BME280;63555;49.920;17.868;2023-02-18T00:44:19;98526.72;;;9.51;73.60
69911;BME280;63555;49.920;17.868;2023-02-18T00:49:19;98529.72;;;9.46;73.47
69911;BME280;63555;49.920;17.868;2023-02-18T00:54:19;98538.06;;;9.40;72.98
69911;BME280;63555;49.920;17.868;2023-02-18T00:59:20;98547.31;;;9.22;73.03
69911;BME280;63555;49.920;17.868;2023-02-18T01:04:20;98559.06;;;9.05;73.38
69911;BME280;63555;49.920;17.868;2023-02-18T01:09:20;98551.41;;;9.02;73.31
69911;BME280;63555;49.920;17.868;2023-02-18T01:14:24;98554.47;;;8.96;73.46
69911;BME280;63555;49.920;17.868;2023-02-18T01:19:25;98560.19;;;8.90;73.52
69911;BME280;63555;49.920;17.868;2023-02-18T01:24:25;98568.34;;;8.74;73.59
69911;BME280;63555;49.920;17.868;2023-02-18T01:29:25;98559.81;;;8.71;74.08
69911;BME280;63555;49.920;17.868;2023-02-18T01:34:26;98558.03;;;8.71;74.06
69911;BME280;63555;49.920;17.868;2023-02-18T01:39:26;98572.03;;;8.72;73.60
69911;BME280;63555;49.920;17.868;2023-02-18T01:44:27;98557.72;;;8.76;73.84
69911;BME280;63555;49.920;17.868;2023-02-18T01:49:31;98567.28;;;8.77;73.80
69911;BME280;63555;49.920;17.868;2023-02-18T01:54:38;98574.44;;;8.75;73.46
69911;BME280;63555;49.920;17.868;2023-02-18T01:59:44;98595.38;;;8.51;74.16
69911;BME280;63555;49.920;17.868;2023-02-18T02:04:45;98596.81;;;8.29;74.82
69911;BME280;63555;49.920;17.868;2023-02-18T02:09:47;98601.97;;;8.18;75.50
69911;BME280;63555;49.920;17.868;2023-02-18T02:15:33;98596.50;;;8.09;75.83
69911;BME280;63555;49.920;17.868;2023-02-18T02:47:43;98599.56;;;8.03;75.12
69911;BME280;63555;49.920;17.868;2023-02-18T02:52:52;98597.25;;;8.23;74.55
69911;BME280;63555;49.920;17.868;2023-02-18T02:57:56;98603.06;;;8.41;73.79
69911;BME280;63555;49.920;17.868;2023-02-18T03:08:32;98630.47;;;8.50;73.23
69911;BME280;63555;49.920;17.868;2023-02-18T03:19:15;98649.28;;;8.44;72.73
69911;BME280;63555;49.920;17.868;2023-02-18T03:24:33;98650.44;;;8.52;72.30
69911;BME280;63555;49.920;17.868;2023-02-18T03:29:35;98663.47;;;8.54;72.38
69911;BME280;63555;49.920;17.868;2023-02-18T03:34:42;98648.34;;;8.57;71.74
69911;BME280;63555;49.920;17.868;2023-02-18T03:39:48;98653.41;;;8.73;70.94
69911;BME280;63555;49.920;17.868;2023-02-18T03:44:51;98656.44;;;8.80;70.42
69911;BME280;63555;49.920;17.868;2023-02-18T03:49:52;98654.44;;;8.83;70.11
69911;BME280;63555;49.920;17.868;2023-02-18T03:54:52;98658.53;;;8.87;69.97
69911;BME280;63555;49.920;17.868;2023-02-18T03:59:52;98663.03;;;8.98;69.22
69911;BME280;63555;49.920;17.868;2023-02-18T04:04:53;98666.59;;;9.10;68.57
69911;BME280;63555;49.920;17.868;2023-02-18T04:09:53;98668.91;;;9.14;68.19
69911;BME280;63555;49.920;17.868;2023-02-18T04:14:54;98669.84;;;9.13;67.96
69911;BME280;63555;49.920;17.868;2023-02-18T04:19:54;98657.00;;;9.09;67.87
69911;BME280;63555;49.920;17.868;2023-02-18T04:24:54;98660.31;;;9.00;68.18
69911;BME280;63555;49.920;17.868;2023-02-18T04:29:55;98667.88;;;8.91;68.17
69911;BME280;63555;49.920;17.868;2023-02-18T04:34:56;98666.53;;;8.86;68.08
69911;BME280;63555;49.920;17.868;2023-02-18T04:39:56;98650.66;;;8.87;67.96
69911;BME280;63555;49.920;17.868;2023-02-18T04:44:56;98664.63;;;8.88;67.79
69911;BME280;63555;49.920;17.868;2023-02-18T04:49:57;98669.69;;;8.78;68.01
69911;BME280;63555;49.920;17.868;2023-02-18T04:54:58;98670.53;;;8.79;67.56
69911;BME280;63555;49.920;17.868;2023-02-18T04:59:58;98657.41;;;8.79;67.55
69911;BME280;63555;49.920;17.868;2023-02-18T05:04:58;98666.22;;;8.78;67.53
69911;BME280;63555;49.920;17.868;2023-02-18T05:09:59;98660.25;;;8.76;67.14
69911;BME280;63555;49.920;17.868;2023-02-18T05:14:59;98659.19;;;8.78;67.03
69911;BME280;63555;49.920;17.868;2023-02-18T05:20:00;98662.75;;;8.77;67.06
69911;BME280;63555;49.920;17.868;2023-02-18T05:25:00;98653.81;;;8.80;66.73
69911;BME280;63555;49.920;17.868;2023-02-18T05:30:01;98653.59;;;8.83;66.49
69911;BME280;63555;49.920;17.868;2023-02-18T05:35:01;98666.84;;;8.81;66.75
69911;BME280;63555;49.920;17.868;2023-02-18T05:40:02;98675.91;;;8.77;66.87
69911;BME280;63555;49.920;17.868;2023-02-18T05:45:03;98682.44;;;8.72;67.00
69911;BME280;63555;49.920;17.868;2023-02-18T05:50:04;98669.06;;;8.75;66.66
69911;BME280;63555;49.920;17.868;2023-02-18T05:55:05;98689.69;;;8.68;67.03
69911;BME280;63555;49.920;17.868;2023-02-18T06:00:06;98691.44;;;8.55;67.42
69911;BME280;63555;49.920;17.868;2023-02-18T06:05:09;98699.53;;;8.39;67.73
69911;BME280;63555;49.920;17.868;2023-02-18T06:10:10;98681.72;;;8.30;68.33
69911;BME280;63555;49.920;17.868;2023-02-18T06:15:10;98686.25;;;8.28;68.14
69911;BME280;63555;49.920;17.868;2023-02-18T06:20:11;98689.28;;;8.22;68.62
69911;BME280;63555;49.920;17.868;2023-02-18T06:25:11;98689.50;;;8.19;68.72
69911;BME280;63555;49.920;17.868;2023-02-18T06:30:12;98669.53;;;8.16;68.43
69911;BME280;63555;49.920;17.868;2023-02-18T06:35:12;98688.66;;;8.18;68.89
69911;BME280;63555;49.920;17.868;2023-02-18T06:40:13;98673.53;;;8.22;68.64
69911;BME280;63555;49.920;17.868;2023-02-18T06:45:13;98674.38;;;8.22;68.45
69911;BME280;63555;49.920;17.868;2023-02-18T06:50:14;98693.59;;;8.23;68.69
69911;BME280;63555;49.920;17.868;2023-02-18T06:55:14;98689.81;;;8.27;68.70
69911;BME280;63555;49.920;17.868;2023-02-18T07:00:15;98697.41;;;8.31;68.29
69911;BME280;63555;49.920;17.868;2023-02-18T07:05:16;98700.38;;;8.40;68.47
69911;BME280;63555;49.920;17.868;2023-02-18T07:10:16;98701.00;;;8.43;68.05
69911;BME280;63555;49.920;17.868;2023-02-18T07:15:17;98704.59;;;8.42;68.32
69911;BME280;63555;49.920;17.868;2023-02-18T07:20:19;98693.97;;;8.44;68.02
69911;BME280;63555;49.920;17.868;2023-02-18T07:25:19;98713.41;;;8.54;67.72
69911;BME280;63555;49.920;17.868;2023-02-18T07:30:20;98709.94;;;8.66;67.51
69911;BME280;63555;49.920;17.868;2023-02-18T07:35:20;98706.94;;;8.72;67.26
69911;BME280;63555;49.920;17.868;2023-02-18T07:40:21;98706.94;;;8.72;67.42
69911;BME280;63555;49.920;17.868;2023-02-18T07:45:21;98714.81;;;8.72;67.43
69911;BME280;63555;49.920;17.868;2023-02-18T07:50:22;98715.97;;;8.68;67.68
69911;BME280;63555;49.920;17.868;2023-02-18T07:55:22;98714.38;;;8.66;67.72
69911;BME280;63555;49.920;17.868;2023-02-18T08:00:23;98721.53;;;8.63;67.93
69911;BME280;63555;49.920;17.868;2023-02-18T08:05:23;98720.34;;;8.55;67.88
69911;BME280;63555;49.920;17.868;2023-02-18T08:10:24;98717.41;;;8.47;67.98
69911;BME280;63555;49.920;17.868;2023-02-18T08:15:24;98724.22;;;8.37;68.27
69911;BME280;63555;49.920;17.868;2023-02-18T08:20:25;98722.66;;;8.34;68.46
69911;BME280;63555;49.920;17.868;2023-02-18T08:25:25;98720.97;;;8.33;68.77
69911;BME280;63555;49.920;17.868;2023-02-18T08:30:25;98706.31;;;8.29;68.56
69911;BME280;63555;49.920;17.868;2023-02-18T08:35:26;98723.78;;;8.30;68.75
69911;BME280;63555;49.920;17.868;2023-02-18T08:40:26;98721.72;;;8.35;67.81
69911;BME280;63555;49.920;17.868;2023-02-18T08:45:26;98704.78;;;8.39;67.29
69911;BME280;63555;49.920;17.868;2023-02-18T08:50:27;98721.41;;;8.40;67.01
69911;BME280;63555;49.920;17.868;2023-02-18T08:55:31;98713.72;;;8.37;67.09
69911;BME280;63555;49.920;17.868;2023-02-18T09:00:32;98705.72;;;8.38;67.11
69911;BME280;63555;49.920;17.868;2023-02-18T09:05:33;98703.94;;;8.39;67.02
69911;BME280;63555;49.920;17.868;2023-02-18T09:10:33;98702.38;;;8.36;67.45
69911;BME280;63555;49.920;17.868;2023-02-18T09:15:33;98698.06;;;8.35;67.13
69911;BME280;63555;49.920;17.868;2023-02-18T09:20:34;98688.09;;;8.40;67.96
69911;BME280;63555;49.920;17.868;2023-02-18T09:25:34;98704.38;;;8.45;67.50
69911;BME280;63555;49.920;17.868;2023-02-18T09:30:35;98699.22;;;8.44;67.69
69911;BME280;63555;49.920;17.868;2023-02-18T09:35:43;98695.03;;;8.41;68.26
69911;BME280;63555;49.920;17.868;2023-02-18T09:40:47;98701.13;;;8.42;68.13
69911;BME280;63555;49.920;17.868;2023-02-18T09:45:50;98672.94;;;8.56;67.79
69911;BME280;63555;49.920;17.868;2023-02-18T09:50:52;98657.59;;;8.76;67.28
69911;BME280;63555;49.920;17.868;2023-02-18T09:55:54;98650.53;;;8.89;66.68
69911;BME280;63555;49.920;17.868;2023-02-18T10:01:05;98662.97;;;8.87;67.18
69911;BME280;63555;49.920;17.868;2023-02-18T10:06:12;98654.47;;;8.71;67.99
69911;BME280;63555;49.920;17.868;2023-02-18T10:16:23;98649.59;;;8.52;70.15
69911;BME280;63555;49.920;17.868;2023-02-18T10:21:26;98640.38;;;8.34;70.76
69911;BME280;63555;49.920;17.868;2023-02-18T10:26:30;98640.75;;;8.15;71.43
69911;BME280;63555;49.920;17.868;2023-02-18T10:31:36;98632.00;;;8.02;72.23
69911;BME280;63555;49.920;17.868;2023-02-18T10:36:43;98640.41;;;7.94;72.08
69911;BME280;63555;49.920;17.868;2023-02-18T10:41:56;98627.38;;;7.92;72.47
69911;BME280;63555;49.920;17.868;2023-02-18T10:47:19;98637.88;;;7.92;72.58
69911;BME280;63555;49.920;17.868;2023-02-18T10:52:36;98604.91;;;7.88;73.05
69911;BME280;63555;49.920;17.868;2023-02-18T10:57:53;98603.97;;;7.89;73.48
69911;BME280;63555;49.920;17.868;2023-02-18T11:08:07;98592.72;;;7.87;73.69
69911;BME280;63555;49.920;17.868;2023-02-18T11:13:12;98592.72;;;7.87;74.06
69911;BME280;63555;49.920;17.868;2023-02-18T11:18:27;98580.63;;;7.85;74.34
69911;BME280;63555;49.920;17.868;2023-02-18T11:23:29;98578.00;;;7.85;74.39
69911;BME280;63555;49.920;17.868;2023-02-18T11:28:31;98568.84;;;7.78;74.35
69911;BME280;63555;49.920;17.868;2023-02-18T11:33:40;98546.69;;;7.69;75.31
69911;BME280;63555;49.920;17.868;2023-02-18T11:38:46;98539.00;;;7.66;75.52
69911;BME280;63555;49.920;17.868;2023-02-18T11:43:51;98522.94;;;7.58;76.27
69911;BME280;63555;49.920;17.868;2023-02-18T11:48:53;98507.41;;;7.55;76.65
69911;BME280;63555;49.920;17.868;2023-02-18T11:53:58;98489.88;;;7.55;76.63
69911;BME280;63555;49.920;17.868;2023-02-18T11:59:01;98473.81;;;7.60;77.01
69911;BME280;63555;49.920;17.868;2023-02-18T12:04:12;98468.91;;;7.81;77.07
69911;BME280;63555;49.920;17.868;2023-02-18T12:09:20;98437.47;;;8.05;76.86
69911;BME280;63555;49.920;17.868;2023-02-18T12:14:23;98435.97;;;8.26;76.40
69911;BME280;63555;49.920;17.868;2023-02-18T12:57:20;98328.84;;;9.23;75.56
69911;BME280;63555;49.920;17.868;2023-02-18T13:02:54;98317.25;;;9.26;75.08
69911;BME280;63555;49.920;17.868;2023-02-18T13:13:21;98284.00;;;9.14;75.45
69911;BME280;63555;49.920;17.868;2023-02-18T13:18:45;98270.25;;;9.10;75.72
69911;BME280;63555;49.920;17.868;2023-02-18T13:23:52;98267.25;;;9.15;75.87
69911;BME280;63555;49.920;17.868;2023-02-18T13:34:26;98238.66;;;9.55;75.71
69911;BME280;63555;49.920;17.868;2023-02-18T13:39:30;98223.50;;;9.90;75.09
69911;BME280;63555;49.920;17.868;2023-02-18T13:49:50;98207.94;;;10.51;74.15
69911;BME280;63555;49.920;17.868;2023-02-18T13:54:53;98195.47;;;10.84;73.42
69911;BME280;63555;49.920;17.868;2023-02-18T14:00:02;98199.66;;;11.17;72.70
69911;BME280;63555;49.920;17.868;2023-02-18T14:25:36;98155.84;;;10.44;74.27
69911;BME280;63555;49.920;17.868;2023-02-18T14:30:40;98159.06;;;10.27;74.72
69911;BME280;63555;49.920;17.868;2023-02-18T14:35:54;98145.91;;;10.15;75.04
69911;BME280;63555;49.920;17.868;2023-02-18T14:41:24;98132.66;;;10.06;75.70
69911;BME280;63555;49.920;17.868;2023-02-18T14:47:28;98135.22;;;9.96;75.54
69911;BME280;63555;49.920;17.868;2023-02-18T14:52:03;98133.94;;;9.90;75.87
69911;BME280;63555;49.920;17.868;2023-02-18T14:57:13;98145.00;;;9.84;76.09
69911;BME280;63555;49.920;17.868;2023-02-18T15:02:21;98134.44;;;9.84;76.30
69911;BME280;63555;49.920;17.868;2023-02-18T15:07:21;98116.97;;;9.83;76.47
69911;BME280;63555;49.920;17.868;2023-02-18T15:12:23;98117.81;;;9.84;76.33
69911;BME280;63555;49.920;17.868;2023-02-18T15:17:25;98115.69;;;9.78;76.36
69911;BME280;63555;49.920;17.868;2023-02-18T15:22:30;98118.25;;;9.68;76.97
69911;BME280;63555;49.920;17.868;2023-02-18T15:27:33;98102.00;;;9.63;76.95
69911;BME280;63555;49.920;17.868;2023-02-18T15:32:37;98091.22;;;9.66;76.55
69911;BME280;63555;49.920;17.868;2023-02-18T15:37:44;98081.13;;;9.71;76.57
69911;BME280;63555;49.920;17.868;2023-02-18T15:42:48;98090.00;;;9.70;76.10
69911;BME280;63555;49.920;17.868;2023-02-18T15:47:53;98090.00;;;9.70;75.94
69911;BME280;63555;49.920;17.868;2023-02-18T15:52:57;98077.34;;;9.64;75.87
69911;BME280;63555;49.920;17.868;2023-02-18T15:58:02;98086.47;;;9.60;75.64
69911;BME280;63555;49.920;17.868;2023-02-18T16:08:25;98084.81;;;9.48;75.45
69911;BME280;63555;49.920;17.868;2023-02-18T16:13:26;98091.28;;;9.44;75.25
69911;BME280;63555;49.920;17.868;2023-02-18T16:23:41;98064.75;;;9.36;75.03
69911;BME280;63555;49.920;17.868;2023-02-18T16:28:44;98056.41;;;9.31;75.14
69911;BME280;63555;49.920;17.868;2023-02-18T16:33:44;98069.94;;;9.26;74.83
69911;BME280;63555;49.920;17.868;2023-02-18T16:38:45;98085.41;;;9.08;75.33
69911;BME280;63555;49.920;17.868;2023-02-18T16:43:45;98103.84;;;8.86;75.50
69911;BME280;63555;49.920;17.868;2023-02-18T16:48:48;98077.94;;;8.59;75.66
69911;BME280;63555;49.920;17.868;2023-02-18T16:53:51;98101.94;;;8.43;76.31
69911;BME280;63555;49.920;17.868;2023-02-18T16:58:51;98096.91;;;8.40;76.23
69911;BME280;63555;49.920;17.868;2023-02-18T17:03:52;98099.13;;;8.22;75.93
69911;BME280;63555;49.920;17.868;2023-02-18T17:08:53;98099.47;;;8.07;76.07
69911;BME280;63555;49.920;17.868;2023-02-18T17:13:54;98098.16;;;8.01;76.69
69911;BME280;63555;49.920;17.868;2023-02-18T17:18:57;98124.53;;;8.11;76.21
69911;BME280;63555;49.920;17.868;2023-02-18T17:23:57;98137.34;;;8.15;76.08
69911;BME280;63555;49.920;17.868;2023-02-18T17:28:58;98151.28;;;8.05;75.66
69911;BME280;63555;49.920;17.868;2023-02-18T17:34:03;98158.78;;;7.98;75.71
69911;BME280;63555;49.920;17.868;2023-02-18T17:39:12;98163.06;;;7.99;75.34
69911;BME280;63555;49.920;17.868;2023-02-18T17:44:19;98155.81;;;8.14;75.16
69911;BME280;63555;49.920;17.868;2023-02-18T17:49:19;98160.75;;;8.29;74.50
69911;BME280;63555;49.920;17.868;2023-02-18T17:54:21;98138.13;;;8.40;74.05
69911;BME280;63555;49.920;17.868;2023-02-18T17:59:23;98139.91;;;8.39;74.04
69911;BME280;63555;49.920;17.868;2023-02-18T18:04:23;98156.44;;;8.17;74.39
69911;BME280;63555;49.920;17.868;2023-02-18T18:09:24;98163.03;;;7.88;75.16
69911;BME280;63555;49.920;17.868;2023-02-18T18:14:24;98193.06;;;7.60;75.48
69911;BME280;63555;49.920;17.868;2023-02-18T18:19:25;98186.63;;;7.40;75.62
69911;BME280;63555;49.920;17.868;2023-02-18T18:24:25;98198.09;;;7.26;76.42
69911;BME280;63555;49.920;17.868;2023-02-18T18:29:25;98202.00;;;7.21;75.87
69911;BME280;63555;49.920;17.868;2023-02-18T18:34:26;98195.53;;;7.14;76.15
69911;BME280;63555;49.920;17.868;2023-02-18T18:39:26;98205.72;;;7.06;76.60
69911;BME280;63555;49.920;17.868;2023-02-18T18:44:26;98220.81;;;7.02;76.87
69911;BME280;63555;49.920;17.868;2023-02-18T18:49:27;98233.19;;;7.00;76.50
69911;BME280;63555;49.920;17.868;2023-02-18T18:54:27;98230.06;;;6.95;76.39
69911;BME280;63555;49.920;17.868;2023-02-18T18:59:27;98240.72;;;6.92;76.85
69911;BME280;63555;49.920;17.868;2023-02-18T19:04:28;98234.97;;;6.87;76.48
69911;BME280;63555;49.920;17.868;2023-02-18T19:09:28;98251.94;;;6.81;77.35
69911;BME280;63555;49.920;17.868;2023-02-18T19:14:28;98267.03;;;6.78;76.93
69911;BME280;63555;49.920;17.868;2023-02-18T19:19:29;98266.63;;;6.71;76.70
69911;BME280;63555;49.920;17.868;2023-02-18T19:24:30;98278.13;;;6.68;76.86
69911;BME280;63555;49.920;17.868;2023-02-18T19:29:30;98286.72;;;6.58;77.14
69911;BME280;63555;49.920;17.868;2023-02-18T19:34:30;98289.13;;;6.48;76.79
69911;BME280;63555;49.920;17.868;2023-02-18T19:39:33;98298.31;;;6.41;76.65
69911;BME280;63555;49.920;17.868;2023-02-18T19:44:33;98299.66;;;6.34;77.01
69911;BME280;63555;49.920;17.868;2023-02-18T19:49:34;98288.03;;;6.25;77.83
69911;BME280;63555;49.920;17.868;2023-02-18T19:54:34;98284.66;;;6.23;77.76
69911;BME280;63555;49.920;17.868;2023-02-18T19:59:35;98288.13;;;6.24;77.40
69911;BME280;63555;49.920;17.868;2023-02-18T20:04:35;98304.78;;;6.23;77.91
69911;BME280;63555;49.920;17.868;2023-02-18T20:09:36;98305.91;;;6.19;77.36
69911;BME280;63555;49.920;17.868;2023-02-18T20:14:37;98312.94;;;6.18;77.36
69911;BME280;63555;49.920;17.868;2023-02-18T20:19:38;98315.69;;;6.29;77.40
69911;BME280;63555;49.920;17.868;2023-02-18T20:24:39;98316.72;;;6.27;77.44
69911;BME280;63555;49.920;17.868;2023-02-18T20:29:39;98321.31;;;6.23;77.38
69911;BME280;63555;49.920;17.868;2023-02-18T20:34:39;98330.22;;;6.21;78.11
69911;BME280;63555;49.920;17.868;2023-02-18T20:39:40;98332.44;;;6.27;78.04
69911;BME280;63555;49.920;17.868;2023-02-18T20:44:42;98329.50;;;6.31;77.99
69911;BME280;63555;49.920;17.868;2023-02-18T20:49:42;98337.88;;;6.24;77.34
69911;BME280;63555;49.920;17.868;2023-02-18T20:54:43;98334.50;;;6.22;77.94
69911;BME280;63555;49.920;17.868;2023-02-18T20:59:43;98347.19;;;6.28;77.79
69911;BME280;63555;49.920;17.868;2023-02-18T21:04:44;98363.16;;;6.37;78.44
69911;BME280;63555;49.920;17.868;2023-02-18T21:09:44;98354.91;;;6.44;77.60
69911;BME280;63555;49.920;17.868;2023-02-18T21:14:44;98357.22;;;6.48;77.01
69911;BME280;63555;49.920;17.868;2023-02-18T21:19:45;98365.56;;;6.41;77.51
69911;BME280;63555;49.920;17.868;2023-02-18T21:24:49;98366.91;;;6.33;77.67
69911;BME280;63555;49.920;17.868;2023-02-18T21:29:50;98372.66;;;6.26;77.29
69911;BME280;63555;49.920;17.868;2023-02-18T21:34:50;98365.19;;;6.20;77.53
69911;BME280;63555;49.920;17.868;2023-02-18T21:39:50;98382.97;;;6.15;77.65
69911;BME280;63555;49.920;17.868;2023-02-18T21:44:51;98379.91;;;6.08;77.51
69911;BME280;63555;49.920;17.868;2023-02-18T21:49:51;98392.69;;;6.13;77.88
69911;BME280;63555;49.920;17.868;2023-02-18T21:54:51;98400.91;;;6.21;78.34
69911;BME280;63555;49.920;17.868;2023-02-18T21:59:52;98408.84;;;6.46;78.16
69911;BME280;63555;49.920;17.868;2023-02-18T22:04:53;98413.34;;;6.71;77.09
69911;BME280;63555;49.920;17.868;2023-02-18T22:09:54;98420.25;;;6.72;76.54
69911;BME280;63555;49.920;17.868;2023-02-18T22:14:54;98420.75;;;6.64;76.32
69911;BME280;63555;49.920;17.868;2023-02-18T22:19:55;98427.25;;;6.59;76.74
69911;BME280;63555;49.920;17.868;2023-02-18T22:24:55;98425.22;;;6.50;76.55
69911;BME280;63555;49.920;17.868;2023-02-18T22:29:55;98427.94;;;6.48;77.37
69911;BME280;63555;49.920;17.868;2023-02-18T22:34:56;98424.19;;;6.52;77.05
69911;BME280;63555;49.920;17.868;2023-02-18T22:39:56;98429.84;;;6.59;76.83
69911;BME280;63555;49.920;17.868;2023-02-18T22:45:00;98431.16;;;6.66;76.69
69911;BME280;63555;49.920;17.868;2023-02-18T22:50:02;98433.06;;;6.77;76.34
69911;BME280;63555;49.920;17.868;2023-02-18T22:55:04;98439.47;;;6.85;76.44
69911;BME280;63555;49.920;17.868;2023-02-18T23:00:09;98438.44;;;6.88;76.22
69911;BME280;63555;49.920;17.868;2023-02-18T23:05:09;98447.69;;;6.93;76.07
69911;BME280;63555;49.920;17.868;2023-02-18T23:10:11;98430.28;;;6.92;75.25
69911;BME280;63555;49.920;17.868;2023-02-18T23:15:11;98440.84;;;6.91;76.35
69911;BME280;63555;49.920;17.868;2023-02-18T23:20:12;98453.13;;;6.90;75.93
69911;BME280;63555;49.920;17.868;2023-02-18T23:25:12;98457.06;;;6.97;75.72
69911;BME280;63555;49.920;17.868;2023-02-18T23:30:13;98466.94;;;7.07;75.74
69911;BME280;63555;49.920;17.868;2023-02-18T23:35:13;98461.06;;;7.16;75.25
69911;BME280;63555;49.920;17.868;2023-02-18T23:40:14;98476.19;;;7.25;75.01
69911;BME280;63555;49.920;17.868;2023-02-18T23:45:14;98455.97;;;7.27;74.52
69911;BME280;63555;49.920;17.868;2023-02-18T23:50:15;98459.22;;;7.30;74.98
69911;BME280;63555;49.920;17.868;2023-02-18T23:55:15;98460.59;;;7.36;74.62
